createdAt,value
2023-05-02T00:02:19.956Z,10.62
2023-05-02T00:04:47.055Z,10.55
2023-05-02T00:07:13.925Z,10.74
2023-05-02T00:09:41.461Z,10.83
2023-05-02T00:12:08.571Z,10.93
2023-05-02T00:14:35.652Z,10.99
2023-05-02T00:17:02.790Z,11.05
2023-05-02T00:19:29.735Z,10.95
2023-05-02T00:21:57.009Z,11.07
2023-05-02T00:24:23.911Z,11.02
2023-05-02T00:26:50.788Z,11.07
2023-05-02T00:29:18.240Z,11.03
2023-05-02T00:31:45.764Z,10.96
2023-05-02T00:34:12.603Z,10.91
2023-05-02T00:36:39.433Z,10.93
2023-05-02T00:39:06.429Z,10.98
2023-05-02T00:41:33.657Z,10.90
2023-05-02T00:44:00.885Z,10.89
2023-05-02T00:46:28.008Z,10.71
2023-05-02T00:48:55.056Z,10.82
2023-05-02T00:51:22.331Z,10.90
2023-05-02T00:53:49.885Z,10.86
2023-05-02T00:56:16.715Z,10.68
2023-05-02T00:58:44.236Z,10.81
2023-05-02T01:01:29.587Z,10.73
2023-05-02T01:04:04.864Z,10.87
2023-05-02T01:06:39.542Z,10.85
2023-05-02T01:09:36.064Z,10.75
2023-05-02T01:12:10.509Z,10.80
2023-05-02T01:14:51.174Z,10.80
2023-05-02T01:17:20.525Z,10.87
2023-05-02T01:19:56.200Z,10.92
2023-05-02T01:22:26.640Z,10.81
2023-05-02T01:25:08.753Z,10.95
2023-05-02T01:28:33.440Z,10.93
2023-05-02T01:31:03.450Z,10.97
2023-05-02T01:33:31.941Z,10.87
2023-05-02T01:36:02.011Z,11.01
2023-05-02T01:38:29.761Z,10.92
2023-05-02T01:40:58.329Z,10.84
2023-05-02T01:43:26.700Z,10.77
2023-05-02T01:45:55.470Z,10.71
2023-05-02T01:48:23.909Z,10.71
2023-05-02T01:50:52.280Z,10.72
2023-05-02T01:53:22.486Z,10.81
2023-05-02T01:55:50.600Z,10.81
2023-05-02T01:58:20.648Z,10.71
2023-05-02T02:00:48.391Z,10.66
2023-05-02T02:03:18.050Z,10.66
2023-05-02T02:05:48.486Z,10.60
2023-05-02T02:08:15.468Z,10.54
2023-05-02T02:10:46.510Z,10.54
2023-05-02T02:13:49.938Z,10.51
2023-05-02T02:16:24.741Z,10.55
2023-05-02T02:18:55.100Z,10.51
2023-05-02T02:21:25.412Z,10.54
2023-05-02T02:23:56.206Z,10.54
2023-05-02T02:26:23.830Z,10.59
2023-05-02T02:28:50.985Z,10.59
2023-05-02T02:31:18.522Z,10.54
2023-05-02T02:33:45.553Z,10.58
2023-05-02T02:36:17.551Z,10.57
2023-05-02T02:38:48.550Z,10.54
2023-05-02T02:41:23.638Z,10.48
2023-05-02T02:44:13.610Z,10.36
2023-05-02T02:46:46.793Z,10.36
2023-05-02T02:49:13.764Z,10.28
2023-05-02T02:51:43.832Z,10.27
2023-05-02T02:54:27.034Z,10.20
2023-05-02T02:57:24.654Z,10.13
2023-05-02T03:00:03.759Z,10.13
2023-05-02T03:02:32.914Z,10.07
2023-05-02T03:05:01.891Z,9.99
2023-05-02T03:07:29.047Z,9.85
2023-05-02T03:09:56.155Z,9.82
2023-05-02T03:12:23.107Z,9.81
2023-05-02T03:14:50.566Z,9.66
2023-05-02T03:17:17.455Z,9.55
2023-05-02T03:19:44.416Z,9.58
2023-05-02T03:22:11.636Z,9.43
2023-05-02T03:24:38.450Z,9.43
2023-05-02T03:27:05.239Z,9.35
2023-05-02T03:29:32.173Z,9.39
2023-05-02T03:31:59.412Z,9.20
2023-05-02T03:34:26.427Z,9.15
2023-05-02T03:36:53.286Z,9.20
2023-05-02T03:39:20.160Z,9.28
2023-05-02T03:41:46.974Z,9.25
2023-05-02T03:44:14.105Z,9.12
2023-05-02T03:46:40.970Z,9.14
2023-05-02T03:49:08.127Z,9.22
2023-05-02T03:51:35.689Z,9.20
2023-05-02T03:54:02.980Z,9.07
2023-05-02T03:56:29.867Z,9.13
2023-05-02T03:58:56.736Z,9.07
2023-05-02T04:01:23.855Z,9.14
2023-05-02T04:03:52.180Z,9.17
2023-05-02T04:06:19.274Z,9.34
2023-05-02T04:08:46.178Z,9.34
2023-05-02T04:11:13.003Z,9.38
2023-05-02T04:13:40.079Z,9.33
2023-05-02T04:16:07.144Z,9.41
2023-05-02T04:18:34.068Z,9.36
2023-05-02T04:21:01.025Z,9.45
2023-05-02T04:23:28.133Z,9.53
2023-05-02T04:25:56.306Z,9.54
2023-05-02T04:28:24.074Z,9.67
2023-05-02T04:30:51.037Z,9.68
2023-05-02T04:33:18.796Z,9.74
2023-05-02T04:35:46.192Z,9.75
2023-05-02T04:38:13.051Z,9.64
2023-05-02T04:40:41.001Z,9.60
2023-05-02T04:43:08.148Z,9.83
2023-05-02T04:45:36.703Z,9.92
2023-05-02T04:48:04.623Z,9.92
2023-05-02T04:50:32.493Z,10.02
2023-05-02T04:52:59.672Z,10.00
2023-05-02T04:55:26.556Z,10.09
2023-05-02T04:57:54.013Z,10.25
2023-05-02T05:00:21.982Z,10.38
2023-05-02T05:02:49.101Z,10.54
2023-05-02T05:05:16.478Z,10.61
2023-05-02T05:07:43.586Z,10.74
2023-05-02T05:10:11.626Z,10.81
2023-05-02T05:12:38.792Z,10.93
2023-05-02T05:15:07.065Z,11.01
2023-05-02T05:17:34.180Z,11.09
2023-05-02T05:20:01.220Z,11.13
2023-05-02T05:22:28.487Z,11.13
2023-05-02T05:24:55.575Z,11.23
2023-05-02T05:27:22.485Z,11.35
2023-05-02T05:29:49.934Z,11.38
2023-05-02T05:32:17.641Z,11.43
2023-05-02T05:34:44.645Z,11.46
2023-05-02T05:37:11.550Z,11.48
2023-05-02T05:39:38.462Z,11.53
2023-05-02T05:42:06.107Z,11.64
2023-05-02T05:44:33.327Z,11.82
2023-05-02T05:47:00.280Z,11.96
2023-05-02T05:49:27.321Z,12.11
2023-05-02T05:51:54.397Z,12.22
2023-05-02T05:54:21.322Z,12.25
2023-05-02T05:56:48.570Z,12.33
2023-05-02T05:59:15.961Z,12.41
2023-05-02T06:01:43.239Z,12.48
2023-05-02T06:04:10.358Z,12.58
2023-05-02T06:06:37.883Z,12.61
2023-05-02T06:09:05.179Z,12.68
2023-05-02T06:11:32.502Z,12.66
2023-05-02T06:13:59.772Z,12.72
2023-05-02T06:16:26.794Z,12.73
2023-05-02T06:18:54.089Z,12.89
2023-05-02T06:21:21.064Z,12.96
2023-05-02T06:23:48.176Z,12.94
2023-05-02T06:26:15.176Z,13.15
2023-05-02T06:28:42.090Z,13.21
2023-05-02T06:31:09.111Z,13.27
2023-05-02T06:33:36.935Z,13.48
2023-05-02T06:36:04.065Z,13.73
2023-05-02T06:38:31.343Z,13.93
2023-05-02T06:40:58.306Z,14.24
2023-05-02T06:43:25.329Z,14.45
2023-05-02T06:45:56.427Z,14.66
2023-05-02T06:48:23.515Z,14.70
2023-05-02T06:50:54.054Z,14.93
2023-05-02T06:53:21.359Z,15.03
2023-05-02T06:55:49.241Z,15.16
2023-05-02T06:58:16.317Z,15.34
2023-05-02T07:00:43.490Z,15.39
2023-05-02T07:03:11.513Z,15.58
2023-05-02T07:05:38.810Z,15.61
2023-05-02T07:08:05.978Z,15.81
2023-05-02T07:10:32.950Z,15.95
2023-05-02T07:12:59.893Z,16.07
2023-05-02T07:15:27.477Z,16.30
2023-05-02T07:17:54.576Z,16.52
2023-05-02T07:20:21.567Z,16.87
2023-05-02T07:22:48.676Z,17.08
2023-05-02T07:25:15.672Z,17.09
2023-05-02T07:27:42.644Z,17.09
2023-05-02T07:30:09.923Z,17.33
2023-05-02T07:32:37.526Z,17.28
2023-05-02T07:35:04.688Z,17.55
2023-05-02T07:37:38.286Z,17.73
2023-05-02T07:40:06.094Z,17.96
2023-05-02T07:42:33.755Z,18.03
2023-05-02T07:45:00.756Z,18.07
2023-05-02T07:47:28.189Z,18.15
2023-05-02T07:49:56.134Z,17.89
2023-05-02T07:52:23.226Z,18.01
2023-05-02T07:54:51.025Z,18.16
2023-05-02T07:57:18.671Z,18.32
2023-05-02T07:59:45.852Z,18.31
2023-05-02T08:02:14.140Z,18.40
2023-05-02T08:04:41.668Z,18.34
2023-05-02T08:07:08.860Z,18.66
2023-05-02T08:09:35.891Z,18.56
2023-05-02T08:12:03.420Z,18.59
2023-05-02T08:14:30.417Z,18.90
2023-05-02T08:16:57.935Z,19.28
2023-05-02T08:19:25.212Z,19.32
2023-05-02T08:21:54.596Z,19.03
2023-05-02T08:24:22.538Z,19.34
2023-05-02T08:26:49.497Z,19.48
2023-05-02T08:29:17.052Z,19.99
2023-05-02T08:31:44.520Z,19.98
2023-05-02T08:34:11.469Z,19.74
2023-05-02T08:36:38.447Z,20.08
2023-05-02T08:39:05.427Z,20.74
2023-05-02T08:41:32.490Z,20.77
2023-05-02T08:44:00.820Z,21.10
2023-05-02T08:46:29.129Z,21.04
2023-05-02T08:48:59.208Z,20.93
2023-05-02T08:51:29.229Z,21.43
2023-05-02T08:53:58.507Z,21.62
2023-05-02T08:56:26.315Z,22.08
2023-05-02T08:58:53.739Z,22.03
2023-05-02T09:01:24.382Z,21.68
2023-05-02T09:03:52.511Z,21.77
2023-05-02T09:06:21.846Z,21.30
2023-05-02T09:08:50.908Z,21.87
2023-05-02T09:11:19.173Z,21.92
2023-05-02T09:13:48.197Z,21.75
2023-05-02T09:16:27.162Z,21.67
2023-05-02T09:18:56.351Z,22.43
2023-05-02T09:21:35.679Z,22.24
2023-05-02T09:24:04.344Z,22.83
2023-05-02T09:26:32.843Z,23.11
2023-05-02T09:29:02.141Z,23.21
2023-05-02T09:31:54.187Z,24.55
2023-05-02T09:34:21.369Z,25.80
2023-05-02T09:36:57.760Z,26.26
2023-05-02T09:39:32.285Z,23.97
2023-05-02T09:41:59.544Z,22.90
2023-05-02T09:44:36.987Z,22.70
2023-05-02T09:47:04.054Z,22.98
2023-05-02T09:49:45.918Z,23.09
2023-05-02T09:52:18.254Z,22.45
2023-05-02T09:54:50.814Z,22.50
2023-05-02T09:57:18.249Z,22.85
2023-05-02T09:59:58.493Z,22.36
2023-05-02T10:02:26.150Z,22.21
2023-05-02T10:04:58.923Z,22.19
2023-05-02T10:07:26.925Z,23.33
2023-05-02T10:09:58.264Z,23.56
2023-05-02T10:12:28.098Z,24.32
2023-05-02T10:15:11.067Z,24.84
2023-05-02T10:17:48.196Z,24.76
2023-05-02T10:20:23.668Z,25.10
2023-05-02T10:22:51.163Z,25.21
2023-05-02T10:25:18.588Z,24.45
2023-05-02T10:27:46.554Z,26.09
2023-05-02T10:30:14.932Z,25.11
2023-05-02T10:32:42.821Z,25.59
2023-05-02T10:35:10.532Z,26.19
2023-05-02T10:37:40.050Z,26.90
2023-05-02T10:40:11.723Z,25.94
2023-05-02T10:42:43.303Z,27.03
2023-05-02T10:45:32.250Z,27.64
2023-05-02T10:48:28.646Z,26.96
2023-05-02T10:50:57.842Z,27.99
2023-05-02T10:53:32.860Z,27.16
2023-05-02T10:56:13.322Z,26.74
2023-05-02T10:58:41.863Z,27.16
2023-05-02T11:01:30.893Z,27.79
2023-05-02T11:04:02.332Z,26.84
2023-05-02T11:06:34.936Z,26.62
2023-05-02T11:09:15.172Z,27.39
2023-05-02T11:11:44.433Z,27.30
2023-05-02T11:14:32.492Z,26.89
2023-05-02T11:17:04.433Z,26.13
2023-05-02T11:19:57.362Z,25.31
2023-05-02T11:22:27.178Z,25.30
2023-05-02T11:24:54.804Z,26.47
2023-05-02T11:27:30.986Z,28.18
2023-05-02T11:30:11.099Z,27.48
2023-05-02T11:32:44.396Z,27.26
2023-05-02T11:35:19.256Z,28.28
2023-05-02T11:37:58.982Z,28.88
2023-05-02T11:40:27.369Z,29.58
2023-05-02T11:42:54.682Z,29.45
2023-05-02T11:45:21.946Z,30.38
2023-05-02T11:47:49.611Z,30.57
2023-05-02T11:50:17.782Z,30.99
2023-05-02T11:52:46.157Z,30.85
2023-05-02T11:55:15.189Z,28.75
2023-05-02T11:57:43.030Z,28.67
2023-05-02T12:00:13.557Z,29.75
2023-05-02T12:02:41.641Z,30.00
2023-05-02T12:05:10.125Z,29.87
2023-05-02T12:07:46.516Z,28.91
2023-05-02T12:10:14.432Z,28.25
2023-05-02T12:12:43.752Z,26.79
2023-05-02T12:15:12.969Z,27.45
2023-05-02T12:17:49.370Z,27.20
2023-05-02T12:20:17.697Z,27.33
2023-05-02T12:22:45.199Z,27.05
2023-05-02T12:25:12.230Z,26.61
2023-05-02T12:27:39.147Z,26.48
2023-05-02T12:30:06.813Z,26.38
2023-05-02T12:32:35.627Z,26.03
2023-05-02T12:35:03.953Z,26.39
2023-05-02T12:37:31.177Z,26.42
2023-05-02T12:39:58.443Z,26.06
2023-05-02T12:42:26.832Z,25.70
2023-05-02T12:44:54.127Z,25.39
2023-05-02T12:47:25.077Z,25.19
2023-05-02T12:49:59.656Z,25.62
2023-05-02T12:52:47.726Z,25.57
2023-05-02T12:55:18.210Z,26.28
2023-05-02T12:57:45.624Z,25.86
2023-05-02T13:00:13.922Z,25.72
2023-05-02T13:02:41.013Z,25.66
2023-05-02T13:05:20.377Z,24.99
2023-05-02T13:07:47.446Z,24.87
2023-05-02T13:10:15.185Z,24.62
2023-05-02T13:12:42.318Z,24.46
2023-05-02T13:15:10.678Z,24.74
2023-05-02T13:17:37.877Z,24.54
2023-05-02T13:20:05.749Z,24.50
2023-05-02T13:22:32.878Z,24.59
2023-05-02T13:25:00.566Z,24.56
2023-05-02T13:27:28.200Z,24.54
2023-05-02T13:29:56.075Z,24.68
2023-05-02T13:32:23.101Z,24.53
2023-05-02T13:34:50.673Z,24.37
2023-05-02T13:37:17.475Z,24.31
2023-05-02T13:39:44.610Z,24.14
2023-05-02T13:42:11.860Z,24.03
2023-05-02T13:44:38.936Z,24.00
2023-05-02T13:47:06.113Z,23.81
2023-05-02T13:49:33.108Z,23.70
2023-05-02T13:52:00.240Z,23.95
2023-05-02T13:54:27.948Z,23.96
2023-05-02T13:56:55.879Z,24.71
2023-05-02T13:59:23.069Z,25.12
2023-05-02T14:01:50.058Z,25.47
2023-05-02T14:04:17.216Z,25.64
2023-05-02T14:06:44.380Z,25.35
2023-05-02T14:09:11.823Z,24.86
2023-05-02T14:11:38.797Z,24.80
2023-05-02T14:14:05.810Z,24.67
2023-05-02T14:16:32.960Z,24.80
2023-05-02T14:18:59.847Z,24.90
2023-05-02T14:21:27.350Z,25.24
2023-05-02T14:23:54.551Z,24.93
2023-05-02T14:26:21.585Z,25.07
2023-05-02T14:28:48.769Z,24.91
2023-05-02T14:31:15.912Z,24.15
2023-05-02T14:33:42.875Z,23.97
2023-05-02T14:36:09.682Z,23.46
2023-05-02T14:38:36.617Z,23.30
2023-05-02T14:41:03.700Z,23.16
2023-05-02T14:43:30.718Z,23.02
2023-05-02T14:45:58.948Z,23.09
2023-05-02T14:48:26.376Z,23.10
2023-05-02T14:50:53.869Z,23.15
2023-05-02T14:53:21.461Z,23.27
2023-05-02T14:55:48.691Z,23.23
2023-05-02T14:58:20.657Z,23.48
2023-05-02T15:00:48.170Z,23.40
2023-05-02T15:03:15.384Z,23.39
2023-05-02T15:05:42.862Z,23.37
2023-05-02T15:08:09.912Z,23.43
2023-05-02T15:10:38.036Z,23.36
2023-05-02T15:13:06.056Z,23.31
2023-05-02T15:15:32.934Z,23.16
2023-05-02T15:18:00.417Z,23.27
2023-05-02T15:20:27.365Z,23.02
2023-05-02T15:22:54.265Z,23.11
2023-05-02T15:25:21.394Z,23.06
2023-05-02T15:27:48.684Z,22.76
2023-05-02T15:30:17.781Z,22.96
2023-05-02T15:32:44.966Z,23.03
2023-05-02T15:35:12.020Z,22.86
2023-05-02T15:37:38.840Z,22.90
2023-05-02T15:40:06.879Z,22.95
2023-05-02T15:42:36.917Z,23.00
2023-05-02T15:45:04.383Z,22.88
2023-05-02T15:47:31.396Z,22.75
2023-05-02T15:49:59.050Z,22.74
2023-05-02T15:52:25.958Z,22.64
2023-05-02T15:54:52.998Z,22.82
2023-05-02T15:57:19.981Z,22.87
2023-05-02T15:59:47.129Z,22.70
2023-05-02T16:02:14.007Z,22.69
2023-05-02T16:04:42.311Z,22.48
2023-05-02T16:07:10.014Z,22.53
2023-05-02T16:09:37.358Z,22.42
2023-05-02T16:12:04.693Z,22.53
2023-05-02T16:14:31.698Z,22.46
2023-05-02T16:17:01.264Z,22.37
2023-05-02T16:19:28.287Z,22.38
2023-05-02T16:21:55.386Z,22.43
2023-05-02T16:24:22.381Z,22.34
2023-05-02T16:26:49.315Z,22.33
2023-05-02T16:29:16.195Z,22.18
2023-05-02T16:31:44.476Z,22.25
2023-05-02T16:34:12.279Z,22.22
2023-05-02T16:36:39.199Z,22.22
2023-05-02T16:39:06.294Z,22.14
2023-05-02T16:41:35.441Z,22.25
2023-05-02T16:44:02.390Z,22.16
2023-05-02T16:46:29.437Z,22.17
2023-05-02T16:48:56.421Z,22.01
2023-05-02T16:51:23.417Z,22.00
2023-05-02T16:53:51.038Z,21.93
2023-05-02T16:56:17.916Z,21.78
2023-05-02T16:58:44.882Z,21.43
2023-05-02T17:01:11.896Z,21.14
2023-05-02T17:03:40.749Z,21.03
2023-05-02T17:06:07.928Z,20.95
2023-05-02T17:08:34.913Z,20.85
2023-05-02T17:11:02.046Z,20.89
2023-05-02T17:13:29.931Z,20.75
2023-05-02T17:15:57.579Z,20.59
2023-05-02T17:18:26.861Z,20.50
2023-05-02T17:20:54.875Z,20.49
2023-05-02T17:23:22.290Z,20.27
2023-05-02T17:25:49.230Z,20.20
2023-05-02T17:28:16.717Z,20.15
2023-05-02T17:30:43.669Z,20.06
2023-05-02T17:33:10.788Z,20.02
2023-05-02T17:35:37.886Z,19.96
2023-05-02T17:38:06.637Z,19.93
2023-05-02T17:40:35.906Z,19.94
2023-05-02T17:43:03.745Z,19.89
2023-05-02T17:45:30.960Z,19.88
2023-05-02T17:47:58.077Z,19.78
2023-05-02T17:50:25.714Z,19.77
2023-05-02T17:52:53.243Z,19.67
2023-05-02T17:55:20.137Z,19.74
2023-05-02T17:57:49.405Z,19.64
2023-05-02T18:00:17.218Z,19.65
2023-05-02T18:02:44.605Z,19.54
2023-05-02T18:05:12.074Z,19.17
2023-05-02T18:07:39.781Z,19.19
2023-05-02T18:10:07.683Z,19.33
2023-05-02T18:12:35.104Z,19.13
2023-05-02T18:15:05.613Z,19.14
2023-05-02T18:17:33.138Z,19.32
2023-05-02T18:20:00.713Z,19.21
2023-05-02T18:22:28.739Z,19.33
2023-05-02T18:24:56.192Z,19.33
2023-05-02T18:27:23.464Z,19.41
2023-05-02T18:29:50.777Z,19.28
2023-05-02T18:32:17.797Z,19.38
2023-05-02T18:34:44.982Z,19.21
2023-05-02T18:37:12.487Z,19.21
2023-05-02T18:39:41.119Z,19.16
2023-05-02T18:42:08.499Z,19.09
2023-05-02T18:44:36.009Z,19.03
2023-05-02T18:47:03.524Z,18.86
2023-05-02T18:49:31.268Z,18.83
2023-05-02T18:51:58.668Z,18.75
2023-05-02T18:54:27.974Z,18.70
2023-05-02T18:56:55.378Z,18.53
2023-05-02T18:59:24.712Z,18.33
2023-05-02T19:01:52.526Z,18.11
2023-05-02T19:04:20.127Z,18.00
2023-05-02T19:06:47.599Z,17.97
2023-05-02T19:09:16.427Z,17.96
2023-05-02T19:11:43.771Z,17.93
2023-05-02T19:14:12.392Z,17.82
2023-05-02T19:16:40.698Z,17.89
2023-05-02T19:19:08.347Z,17.77
2023-05-02T19:21:35.884Z,17.83
2023-05-02T19:24:04.296Z,17.74
2023-05-02T19:26:32.545Z,17.73
2023-05-02T19:29:00.783Z,17.71
2023-05-02T19:31:28.666Z,17.62
2023-05-02T19:33:56.213Z,17.71
2023-05-02T19:36:25.312Z,17.73
2023-05-02T19:38:54.689Z,17.75
2023-05-02T19:41:22.707Z,17.65
2023-05-02T19:43:50.972Z,17.57
2023-05-02T19:46:19.637Z,17.48
2023-05-02T19:48:47.309Z,17.43
2023-05-02T19:51:14.459Z,17.39
2023-05-02T19:53:41.972Z,17.40
2023-05-02T19:56:09.127Z,17.35
2023-05-02T19:58:36.524Z,17.40
2023-05-02T20:01:03.811Z,17.39
2023-05-02T20:03:31.458Z,17.34
2023-05-02T20:05:59.148Z,17.26
2023-05-02T20:08:28.284Z,17.18
2023-05-02T20:10:56.129Z,17.26
2023-05-02T20:13:23.867Z,17.15
2023-05-02T20:15:52.162Z,17.18
2023-05-02T20:18:19.961Z,17.27
2023-05-02T20:20:47.777Z,17.17
2023-05-02T20:23:15.031Z,17.30
2023-05-02T20:25:42.944Z,17.29
2023-05-02T20:28:10.733Z,17.22
2023-05-02T20:30:40.008Z,17.09
2023-05-02T20:33:15.605Z,17.25
2023-05-02T20:35:44.914Z,17.08
2023-05-02T20:38:12.135Z,17.16
2023-05-02T20:40:40.672Z,17.11
2023-05-02T20:43:07.866Z,17.10
2023-05-02T20:45:34.866Z,17.13
2023-05-02T20:48:01.935Z,17.06
2023-05-02T20:50:29.298Z,16.76
2023-05-02T20:52:56.575Z,16.76
2023-05-02T20:55:24.360Z,16.69
2023-05-02T20:57:53.353Z,16.52
2023-05-02T21:00:23.465Z,16.55
2023-05-02T21:02:50.720Z,16.27
2023-05-02T21:05:17.771Z,16.36
2023-05-02T21:07:45.104Z,16.39
2023-05-02T21:10:12.250Z,16.28
2023-05-02T21:12:39.559Z,16.23
2023-05-02T21:15:07.739Z,16.19
2023-05-02T21:17:34.876Z,16.28
2023-05-02T21:20:02.341Z,16.09
2023-05-02T21:22:29.915Z,16.21
2023-05-02T21:24:56.857Z,16.25
2023-05-02T21:27:23.864Z,16.27
2023-05-02T21:29:51.120Z,16.19
2023-05-02T21:32:18.007Z,16.27
2023-05-02T21:34:44.923Z,16.21
2023-05-02T21:37:11.845Z,16.16
2023-05-02T21:39:38.864Z,16.16
2023-05-02T21:42:06.221Z,16.11
2023-05-02T21:44:33.052Z,16.04
2023-05-02T21:46:59.987Z,15.90
2023-05-02T21:49:29.955Z,15.75
2023-05-02T21:51:58.382Z,15.78
2023-05-02T21:54:25.646Z,15.75
2023-05-02T21:56:55.323Z,15.60
2023-05-02T21:59:22.210Z,15.64
2023-05-02T22:01:49.073Z,15.61
2023-05-02T22:04:16.417Z,15.47
2023-05-02T22:06:48.135Z,15.45
2023-05-02T22:09:15.071Z,15.41
2023-05-02T22:11:42.291Z,15.39
2023-05-02T22:14:11.232Z,15.39
2023-05-02T22:16:40.050Z,15.40
2023-05-02T22:19:07.559Z,15.40
2023-05-02T22:21:34.764Z,15.30
2023-05-02T22:24:01.674Z,15.49
2023-05-02T22:26:28.644Z,15.46
2023-05-02T22:28:55.790Z,15.39
2023-05-02T22:31:22.842Z,15.36
2023-05-02T22:33:50.244Z,15.36
2023-05-02T22:36:18.018Z,15.42
2023-05-02T22:38:44.965Z,15.36
2023-05-02T22:41:11.964Z,15.48
2023-05-02T22:43:38.920Z,15.54
2023-05-02T22:46:05.835Z,15.56
2023-05-02T22:48:32.766Z,15.41
2023-05-02T22:50:59.663Z,15.37
2023-05-02T22:53:26.518Z,15.34
2023-05-02T22:55:53.667Z,15.19
2023-05-02T22:58:20.683Z,14.94
2023-05-02T23:00:47.609Z,14.77
2023-05-02T23:03:14.725Z,14.83
2023-05-02T23:05:41.669Z,14.86
2023-05-02T23:08:08.774Z,14.79
2023-05-02T23:10:35.832Z,14.63
2023-05-02T23:13:02.640Z,14.50
2023-05-02T23:15:29.503Z,14.57
2023-05-02T23:17:56.389Z,14.67
2023-05-02T23:20:23.450Z,14.55
2023-05-02T23:22:50.286Z,14.71
2023-05-02T23:25:18.651Z,14.73
2023-05-02T23:27:45.715Z,14.75
2023-05-02T23:30:12.944Z,14.76
2023-05-02T23:32:40.263Z,14.76
2023-05-02T23:35:07.794Z,14.72
2023-05-02T23:37:34.989Z,14.68
2023-05-02T23:40:02.510Z,14.61
2023-05-02T23:42:30.237Z,14.70
2023-05-02T23:44:57.963Z,14.64
2023-05-02T23:47:28.159Z,14.72
2023-05-02T23:49:55.277Z,14.63
2023-05-02T23:52:22.243Z,14.52
2023-05-02T23:54:49.605Z,14.54
2023-05-02T23:57:16.541Z,14.48
2023-05-02T23:59:43.646Z,14.47
